sensor_id;sensor_type;location;lat;lon;timestamp;temperature;humidity
12426;DHT22;6277;49.824;9.562;2022-10-17T00:00:45;15.10;77.50
12426;DHT22;6277;49.824;9.562;2022-10-17T00:03:11;15.10;77.50
12426;DHT22;6277;49.824;9.562;2022-10-17T00:05:42;15.10;77.50
12426;DHT22;6277;49.824;9.562;2022-10-17T00:08:08;15.10;77.60
12426;DHT22;6277;49.824;9.562;2022-10-17T00:10:35;15.20;77.70
12426;DHT22;6277;49.824;9.562;2022-10-17T00:13:00;15.10;77.60
12426;DHT22;6277;49.824;9.562;2022-10-17T00:15:26;15.10;77.60
12426;DHT22;6277;49.824;9.562;2022-10-17T00:17:51;15.10;77.70
12426;DHT22;6277;49.824;9.562;2022-10-17T00:20:17;15.00;77.70
12426;DHT22;6277;49.824;9.562;2022-10-17T00:22:43;15.00;77.80
12426;DHT22;6277;49.824;9.562;2022-10-17T00:25:09;15.00;77.90
12426;DHT22;6277;49.824;9.562;2022-10-17T00:27:36;15.10;78.00
12426;DHT22;6277;49.824;9.562;2022-10-17T00:30:03;15.00;77.90
12426;DHT22;6277;49.824;9.562;2022-10-17T00:32:29;15.10;78.10
12426;DHT22;6277;49.824;9.562;2022-10-17T00:34:54;15.10;78.00
12426;DHT22;6277;49.824;9.562;2022-10-17T00:37:20;15.00;77.90
12426;DHT22;6277;49.824;9.562;2022-10-17T00:39:45;15.00;77.90
12426;DHT22;6277;49.824;9.562;2022-10-17T00:42:11;15.00;77.80
12426;DHT22;6277;49.824;9.562;2022-10-17T00:47:10;15.00;77.70
12426;DHT22;6277;49.824;9.562;2022-10-17T00:49:38;14.90;77.70
12426;DHT22;6277;49.824;9.562;2022-10-17T00:52:09;14.90;77.60
12426;DHT22;6277;49.824;9.562;2022-10-17T00:54:42;14.90;77.80
12426;DHT22;6277;49.824;9.562;2022-10-17T00:57:09;14.90;77.80
12426;DHT22;6277;49.824;9.562;2022-10-17T00:59:37;14.90;77.50
12426;DHT22;6277;49.824;9.562;2022-10-17T01:02:05;14.80;77.40
12426;DHT22;6277;49.824;9.562;2022-10-17T01:04:31;14.80;77.50
12426;DHT22;6277;49.824;9.562;2022-10-17T01:06:57;14.90;77.60
12426;DHT22;6277;49.824;9.562;2022-10-17T01:09:23;14.70;77.60
12426;DHT22;6277;49.824;9.562;2022-10-17T01:12:10;14.70;77.70
12426;DHT22;6277;49.824;9.562;2022-10-17T01:25:46;14.60;77.80
12426;DHT22;6277;49.824;9.562;2022-10-17T01:28:36;14.60;77.60
12426;DHT22;6277;49.824;9.562;2022-10-17T01:31:13;14.60;77.70
12426;DHT22;6277;49.824;9.562;2022-10-17T01:36:22;14.50;77.60
12426;DHT22;6277;49.824;9.562;2022-10-17T01:39:00;14.50;77.70
12426;DHT22;6277;49.824;9.562;2022-10-17T01:47:09;14.40;77.90
12426;DHT22;6277;49.824;9.562;2022-10-17T01:49:38;14.40;77.70
12426;DHT22;6277;49.824;9.562;2022-10-17T01:52:14;14.40;77.80
12426;DHT22;6277;49.824;9.562;2022-10-17T01:54:54;14.40;77.90
12426;DHT22;6277;49.824;9.562;2022-10-17T01:57:28;14.30;78.00
12426;DHT22;6277;49.824;9.562;2022-10-17T01:59:55;14.40;77.90
12426;DHT22;6277;49.824;9.562;2022-10-17T02:02:22;14.30;78.10
12426;DHT22;6277;49.824;9.562;2022-10-17T02:04:50;14.40;77.70
12426;DHT22;6277;49.824;9.562;2022-10-17T02:07:16;14.30;77.80
12426;DHT22;6277;49.824;9.562;2022-10-17T02:09:42;14.30;77.80
12426;DHT22;6277;49.824;9.562;2022-10-17T02:20:29;14.40;79.40
12426;DHT22;6277;49.824;9.562;2022-10-17T02:22:55;14.40;79.20
12426;DHT22;6277;49.824;9.562;2022-10-17T02:25:50;14.50;79.10
12426;DHT22;6277;49.824;9.562;2022-10-17T02:28:23;14.50;79.40
12426;DHT22;6277;49.824;9.562;2022-10-17T02:30:57;14.60;79.20
12426;DHT22;6277;49.824;9.562;2022-10-17T02:33:55;14.60;79.20
12426;DHT22;6277;49.824;9.562;2022-10-17T02:36:27;14.80;79.60
12426;DHT22;6277;49.824;9.562;2022-10-17T02:38:53;14.80;79.20
12426;DHT22;6277;49.824;9.562;2022-10-17T02:41:22;14.90;79.20
12426;DHT22;6277;49.824;9.562;2022-10-17T02:43:49;14.90;79.20
12426;DHT22;6277;49.824;9.562;2022-10-17T02:46:18;14.90;79.10
12426;DHT22;6277;49.824;9.562;2022-10-17T02:48:53;14.90;79.10
12426;DHT22;6277;49.824;9.562;2022-10-17T02:51:32;14.90;79.10
12426;DHT22;6277;49.824;9.562;2022-10-17T02:54:25;15.00;79.20
12426;DHT22;6277;49.824;9.562;2022-10-17T02:57:01;15.00;79.20
12426;DHT22;6277;49.824;9.562;2022-10-17T02:59:32;15.00;78.80
12426;DHT22;6277;49.824;9.562;2022-10-17T03:02:02;15.00;78.60
12426;DHT22;6277;49.824;9.562;2022-10-17T03:04:28;15.00;78.40
12426;DHT22;6277;49.824;9.562;2022-10-17T03:06:53;14.90;78.20
12426;DHT22;6277;49.824;9.562;2022-10-17T03:09:19;15.00;78.20
12426;DHT22;6277;49.824;9.562;2022-10-17T03:11:45;14.80;78.10
12426;DHT22;6277;49.824;9.562;2022-10-17T03:14:10;14.80;78.10
12426;DHT22;6277;49.824;9.562;2022-10-17T03:16:36;14.80;78.00
12426;DHT22;6277;49.824;9.562;2022-10-17T03:19:02;14.80;78.00
12426;DHT22;6277;49.824;9.562;2022-10-17T03:21:27;14.70;78.00
12426;DHT22;6277;49.824;9.562;2022-10-17T03:23:53;14.70;77.90
12426;DHT22;6277;49.824;9.562;2022-10-17T03:26:19;14.70;77.90
12426;DHT22;6277;49.824;9.562;2022-10-17T03:28:44;14.60;77.70
12426;DHT22;6277;49.824;9.562;2022-10-17T03:31:13;14.60;77.80
12426;DHT22;6277;49.824;9.562;2022-10-17T03:33:39;14.60;77.90
12426;DHT22;6277;49.824;9.562;2022-10-17T03:36:10;14.50;77.80
12426;DHT22;6277;49.824;9.562;2022-10-17T03:38:37;14.50;78.00
12426;DHT22;6277;49.824;9.562;2022-10-17T03:41:03;14.50;77.90
12426;DHT22;6277;49.824;9.562;2022-10-17T03:43:29;14.40;77.90
12426;DHT22;6277;49.824;9.562;2022-10-17T03:45:59;14.40;78.00
12426;DHT22;6277;49.824;9.562;2022-10-17T03:48:25;14.40;78.20
12426;DHT22;6277;49.824;9.562;2022-10-17T03:50:51;14.40;78.20
12426;DHT22;6277;49.824;9.562;2022-10-17T03:53:17;14.40;78.40
12426;DHT22;6277;49.824;9.562;2022-10-17T03:55:43;14.40;78.50
12426;DHT22;6277;49.824;9.562;2022-10-17T03:58:08;14.40;78.60
12426;DHT22;6277;49.824;9.562;2022-10-17T04:00:35;14.40;78.80
12426;DHT22;6277;49.824;9.562;2022-10-17T04:03:01;14.40;78.90
12426;DHT22;6277;49.824;9.562;2022-10-17T04:05:26;14.40;78.90
12426;DHT22;6277;49.824;9.562;2022-10-17T04:07:52;14.50;78.90
12426;DHT22;6277;49.824;9.562;2022-10-17T04:10:17;14.50;78.90
12426;DHT22;6277;49.824;9.562;2022-10-17T04:12:43;14.50;78.90
12426;DHT22;6277;49.824;9.562;2022-10-17T04:15:09;14.50;78.90
12426;DHT22;6277;49.824;9.562;2022-10-17T04:17:35;14.50;78.90
12426;DHT22;6277;49.824;9.562;2022-10-17T04:20:00;14.50;78.90
12426;DHT22;6277;49.824;9.562;2022-10-17T04:22:26;14.50;78.80
12426;DHT22;6277;49.824;9.562;2022-10-17T04:24:52;14.60;79.50
12426;DHT22;6277;49.824;9.562;2022-10-17T04:27:17;14.60;78.80
12426;DHT22;6277;49.824;9.562;2022-10-17T04:29:43;14.60;78.80
12426;DHT22;6277;49.824;9.562;2022-10-17T04:32:08;14.50;78.70
12426;DHT22;6277;49.824;9.562;2022-10-17T04:34:34;14.60;78.80
12426;DHT22;6277;49.824;9.562;2022-10-17T04:37:00;14.60;78.90
12426;DHT22;6277;49.824;9.562;2022-10-17T04:39:25;14.60;78.90
12426;DHT22;6277;49.824;9.562;2022-10-17T04:41:51;14.60;79.00
12426;DHT22;6277;49.824;9.562;2022-10-17T04:44:16;14.60;79.60
12426;DHT22;6277;49.824;9.562;2022-10-17T04:46:42;14.60;78.90
12426;DHT22;6277;49.824;9.562;2022-10-17T04:49:08;14.60;78.90
12426;DHT22;6277;49.824;9.562;2022-10-17T04:51:34;14.60;79.00
12426;DHT22;6277;49.824;9.562;2022-10-17T04:53:59;14.60;78.90
12426;DHT22;6277;49.824;9.562;2022-10-17T04:56:25;14.60;78.80
12426;DHT22;6277;49.824;9.562;2022-10-17T04:58:51;14.60;78.70
12426;DHT22;6277;49.824;9.562;2022-10-17T05:01:19;14.60;78.60
12426;DHT22;6277;49.824;9.562;2022-10-17T05:03:45;14.50;78.60
12426;DHT22;6277;49.824;9.562;2022-10-17T05:06:13;14.50;78.70
12426;DHT22;6277;49.824;9.562;2022-10-17T05:08:39;14.50;78.90
12426;DHT22;6277;49.824;9.562;2022-10-17T05:11:34;14.50;79.00
12426;DHT22;6277;49.824;9.562;2022-10-17T05:14:00;14.50;79.40
12426;DHT22;6277;49.824;9.562;2022-10-17T05:16:27;14.50;79.40
12426;DHT22;6277;49.824;9.562;2022-10-17T05:18:55;14.60;79.20
12426;DHT22;6277;49.824;9.562;2022-10-17T05:21:22;14.60;79.40
12426;DHT22;6277;49.824;9.562;2022-10-17T05:23:48;14.60;79.50
12426;DHT22;6277;49.824;9.562;2022-10-17T05:26:15;14.60;79.60
12426;DHT22;6277;49.824;9.562;2022-10-17T05:28:40;14.70;79.70
12426;DHT22;6277;49.824;9.562;2022-10-17T05:31:08;14.70;79.80
12426;DHT22;6277;49.824;9.562;2022-10-17T05:33:35;14.80;80.00
12426;DHT22;6277;49.824;9.562;2022-10-17T05:36:01;14.80;79.90
12426;DHT22;6277;49.824;9.562;2022-10-17T05:38:27;14.80;79.80
12426;DHT22;6277;49.824;9.562;2022-10-17T05:40:57;14.90;79.90
12426;DHT22;6277;49.824;9.562;2022-10-17T05:43:23;14.90;80.10
12426;DHT22;6277;49.824;9.562;2022-10-17T05:45:48;15.00;80.00
12426;DHT22;6277;49.824;9.562;2022-10-17T05:48:14;14.90;79.90
12426;DHT22;6277;49.824;9.562;2022-10-17T05:50:39;15.00;79.90
12426;DHT22;6277;49.824;9.562;2022-10-17T05:53:05;15.00;80.40
12426;DHT22;6277;49.824;9.562;2022-10-17T05:55:30;15.00;79.70
12426;DHT22;6277;49.824;9.562;2022-10-17T05:57:56;15.00;79.60
12426;DHT22;6277;49.824;9.562;2022-10-17T06:00:23;15.10;79.70
12426;DHT22;6277;49.824;9.562;2022-10-17T06:02:48;15.10;79.70
12426;DHT22;6277;49.824;9.562;2022-10-17T06:05:14;15.10;79.70
12426;DHT22;6277;49.824;9.562;2022-10-17T06:07:40;15.10;79.70
12426;DHT22;6277;49.824;9.562;2022-10-17T06:10:06;15.10;79.60
12426;DHT22;6277;49.824;9.562;2022-10-17T06:12:32;15.10;79.60
12426;DHT22;6277;49.824;9.562;2022-10-17T06:14:57;15.20;79.60
12426;DHT22;6277;49.824;9.562;2022-10-17T06:17:23;15.20;79.50
12426;DHT22;6277;49.824;9.562;2022-10-17T06:19:49;15.20;79.60
12426;DHT22;6277;49.824;9.562;2022-10-17T06:22:14;15.20;79.40
12426;DHT22;6277;49.824;9.562;2022-10-17T06:24:40;15.20;79.40
12426;DHT22;6277;49.824;9.562;2022-10-17T06:27:06;15.20;79.30
12426;DHT22;6277;49.824;9.562;2022-10-17T06:29:32;15.20;79.30
12426;DHT22;6277;49.824;9.562;2022-10-17T06:31:58;15.20;79.20
12426;DHT22;6277;49.824;9.562;2022-10-17T06:34:23;15.20;79.10
12426;DHT22;6277;49.824;9.562;2022-10-17T06:36:49;15.20;79.20
12426;DHT22;6277;49.824;9.562;2022-10-17T06:39:14;15.10;79.10
12426;DHT22;6277;49.824;9.562;2022-10-17T06:41:40;15.10;79.10
12426;DHT22;6277;49.824;9.562;2022-10-17T06:44:07;15.20;79.10
12426;DHT22;6277;49.824;9.562;2022-10-17T06:46:36;15.10;79.00
12426;DHT22;6277;49.824;9.562;2022-10-17T06:49:02;15.10;79.00
12426;DHT22;6277;49.824;9.562;2022-10-17T06:51:29;15.10;79.10
12426;DHT22;6277;49.824;9.562;2022-10-17T06:53:57;15.20;79.20
12426;DHT22;6277;49.824;9.562;2022-10-17T06:56:22;15.20;79.30
12426;DHT22;6277;49.824;9.562;2022-10-17T06:58:48;15.10;79.30
12426;DHT22;6277;49.824;9.562;2022-10-17T07:01:15;15.20;79.40
12426;DHT22;6277;49.824;9.562;2022-10-17T07:03:41;15.20;79.60
12426;DHT22;6277;49.824;9.562;2022-10-17T07:06:08;15.30;79.80
12426;DHT22;6277;49.824;9.562;2022-10-17T07:08:40;15.30;80.00
12426;DHT22;6277;49.824;9.562;2022-10-17T07:11:11;15.40;80.10
12426;DHT22;6277;49.824;9.562;2022-10-17T07:13:37;15.40;80.30
12426;DHT22;6277;49.824;9.562;2022-10-17T07:16:04;15.50;80.40
12426;DHT22;6277;49.824;9.562;2022-10-17T07:18:29;15.60;80.50
12426;DHT22;6277;49.824;9.562;2022-10-17T07:20:55;15.70;80.50
12426;DHT22;6277;49.824;9.562;2022-10-17T07:23:21;15.70;80.40
12426;DHT22;6277;49.824;9.562;2022-10-17T07:25:47;15.80;80.30
12426;DHT22;6277;49.824;9.562;2022-10-17T07:28:14;15.90;80.30
12426;DHT22;6277;49.824;9.562;2022-10-17T07:30:39;16.00;80.40
12426;DHT22;6277;49.824;9.562;2022-10-17T07:33:05;16.00;80.30
12426;DHT22;6277;49.824;9.562;2022-10-17T07:35:32;16.10;80.20
12426;DHT22;6277;49.824;9.562;2022-10-17T07:37:57;16.20;80.20
12426;DHT22;6277;49.824;9.562;2022-10-17T07:40:23;16.20;80.10
12426;DHT22;6277;49.824;9.562;2022-10-17T07:42:48;16.20;80.00
12426;DHT22;6277;49.824;9.562;2022-10-17T07:45:14;16.30;80.20
12426;DHT22;6277;49.824;9.562;2022-10-17T07:47:40;16.40;80.30
12426;DHT22;6277;49.824;9.562;2022-10-17T07:50:06;16.40;80.20
12426;DHT22;6277;49.824;9.562;2022-10-17T07:52:32;16.50;80.30
12426;DHT22;6277;49.824;9.562;2022-10-17T07:54:58;16.50;80.40
12426;DHT22;6277;49.824;9.562;2022-10-17T07:57:23;16.70;80.50
12426;DHT22;6277;49.824;9.562;2022-10-17T07:59:49;16.70;80.40
12426;DHT22;6277;49.824;9.562;2022-10-17T08:02:25;16.80;80.30
12426;DHT22;6277;49.824;9.562;2022-10-17T08:04:52;16.80;80.10
12426;DHT22;6277;49.824;9.562;2022-10-17T08:07:18;16.90;80.20
12426;DHT22;6277;49.824;9.562;2022-10-17T08:09:44;17.00;80.20
12426;DHT22;6277;49.824;9.562;2022-10-17T08:12:10;17.10;80.20
12426;DHT22;6277;49.824;9.562;2022-10-17T08:14:36;17.10;80.10
12426;DHT22;6277;49.824;9.562;2022-10-17T08:17:01;17.30;80.10
12426;DHT22;6277;49.824;9.562;2022-10-17T08:19:27;17.20;80.00
12426;DHT22;6277;49.824;9.562;2022-10-17T08:21:53;17.30;80.70
12426;DHT22;6277;49.824;9.562;2022-10-17T08:24:19;17.40;80.20
12426;DHT22;6277;49.824;9.562;2022-10-17T08:26:44;17.40;80.10
12426;DHT22;6277;49.824;9.562;2022-10-17T08:29:14;17.50;80.10
12426;DHT22;6277;49.824;9.562;2022-10-17T08:31:40;17.60;80.00
12426;DHT22;6277;49.824;9.562;2022-10-17T08:34:06;17.60;79.90
12426;DHT22;6277;49.824;9.562;2022-10-17T08:36:31;17.70;79.90
12426;DHT22;6277;49.824;9.562;2022-10-17T08:38:57;17.70;79.90
12426;DHT22;6277;49.824;9.562;2022-10-17T08:46:49;17.90;79.90
12426;DHT22;6277;49.824;9.562;2022-10-17T08:52:06;18.00;80.00
12426;DHT22;6277;49.824;9.562;2022-10-17T08:54:43;18.10;80.20
12426;DHT22;6277;49.824;9.562;2022-10-17T08:57:12;18.20;80.30
12426;DHT22;6277;49.824;9.562;2022-10-17T08:59:39;18.30;80.30
12426;DHT22;6277;49.824;9.562;2022-10-17T09:02:41;18.30;80.20
12426;DHT22;6277;49.824;9.562;2022-10-17T09:08:16;18.50;79.50
12426;DHT22;6277;49.824;9.562;2022-10-17T09:16:49;18.70;79.20
12426;DHT22;6277;49.824;9.562;2022-10-17T09:19:23;18.80;79.20
12426;DHT22;6277;49.824;9.562;2022-10-17T09:22:09;18.90;79.30
12426;DHT22;6277;49.824;9.562;2022-10-17T09:27:22;19.00;79.20
12426;DHT22;6277;49.824;9.562;2022-10-17T09:29:51;19.10;79.10
12426;DHT22;6277;49.824;9.562;2022-10-17T09:32:23;19.20;79.50
12426;DHT22;6277;49.824;9.562;2022-10-17T09:34:48;19.20;79.10
12426;DHT22;6277;49.824;9.562;2022-10-17T09:37:16;19.30;79.20
12426;DHT22;6277;49.824;9.562;2022-10-17T09:39:42;19.30;78.90
12426;DHT22;6277;49.824;9.562;2022-10-17T09:42:14;19.40;79.00
12426;DHT22;6277;49.824;9.562;2022-10-17T09:45:12;19.40;78.70
12426;DHT22;6277;49.824;9.562;2022-10-17T09:47:41;19.50;78.50
12426;DHT22;6277;49.824;9.562;2022-10-17T09:50:15;19.50;78.70
12426;DHT22;6277;49.824;9.562;2022-10-17T09:52:42;19.60;78.60
12426;DHT22;6277;49.824;9.562;2022-10-17T09:58:04;19.80;78.50
12426;DHT22;6277;49.824;9.562;2022-10-17T10:00:36;19.90;78.50
12426;DHT22;6277;49.824;9.562;2022-10-17T10:03:18;20.00;78.20
12426;DHT22;6277;49.824;9.562;2022-10-17T10:08:31;20.10;77.90
12426;DHT22;6277;49.824;9.562;2022-10-17T10:11:00;20.20;78.50
12426;DHT22;6277;49.824;9.562;2022-10-17T10:13:27;20.30;78.40
12426;DHT22;6277;49.824;9.562;2022-10-17T10:15:53;20.40;78.30
12426;DHT22;6277;49.824;9.562;2022-10-17T10:18:36;20.50;78.10
12426;DHT22;6277;49.824;9.562;2022-10-17T10:21:17;20.60;78.00
12426;DHT22;6277;49.824;9.562;2022-10-17T10:26:46;20.80;77.00
12426;DHT22;6277;49.824;9.562;2022-10-17T10:29:42;20.90;77.30
12426;DHT22;6277;49.824;9.562;2022-10-17T10:32:26;21.00;77.10
12426;DHT22;6277;49.824;9.562;2022-10-17T10:37:37;21.20;77.70
12426;DHT22;6277;49.824;9.562;2022-10-17T10:42:46;21.50;77.30
12426;DHT22;6277;49.824;9.562;2022-10-17T10:45:20;21.60;77.60
12426;DHT22;6277;49.824;9.562;2022-10-17T10:50:44;21.80;76.90
12426;DHT22;6277;49.824;9.562;2022-10-17T10:56:12;22.00;76.40
12426;DHT22;6277;49.824;9.562;2022-10-17T10:59:18;22.00;75.70
12426;DHT22;6277;49.824;9.562;2022-10-17T11:01:56;22.10;75.70
12426;DHT22;6277;49.824;9.562;2022-10-17T11:12:33;22.20;74.80
12426;DHT22;6277;49.824;9.562;2022-10-17T11:17:56;22.20;75.10
12426;DHT22;6277;49.824;9.562;2022-10-17T11:20:33;22.30;74.50
12426;DHT22;6277;49.824;9.562;2022-10-17T11:25:38;22.40;74.80
12426;DHT22;6277;49.824;9.562;2022-10-17T11:28:12;22.40;74.60
12426;DHT22;6277;49.824;9.562;2022-10-17T11:30:46;22.50;74.30
12426;DHT22;6277;49.824;9.562;2022-10-17T11:33:17;22.60;74.40
12426;DHT22;6277;49.824;9.562;2022-10-17T11:35:46;22.60;74.70
12426;DHT22;6277;49.824;9.562;2022-10-17T11:38:31;22.70;74.50
12426;DHT22;6277;49.824;9.562;2022-10-17T11:41:01;22.70;74.10
12426;DHT22;6277;49.824;9.562;2022-10-17T11:43:35;22.80;74.40
12426;DHT22;6277;49.824;9.562;2022-10-17T11:46:12;22.80;73.70
12426;DHT22;6277;49.824;9.562;2022-10-17T11:48:49;22.90;73.80
12426;DHT22;6277;49.824;9.562;2022-10-17T11:51:18;23.00;73.80
12426;DHT22;6277;49.824;9.562;2022-10-17T11:53:53;23.10;74.00
12426;DHT22;6277;49.824;9.562;2022-10-17T12:02:35;23.30;73.30
12426;DHT22;6277;49.824;9.562;2022-10-17T12:12:54;23.70;72.80
12426;DHT22;6277;49.824;9.562;2022-10-17T12:17:55;23.90;73.30
12426;DHT22;6277;49.824;9.562;2022-10-17T12:25:23;24.10;72.40
12426;DHT22;6277;49.824;9.562;2022-10-17T12:28:14;24.20;72.20
12426;DHT22;6277;49.824;9.562;2022-10-17T12:30:56;24.20;71.50
12426;DHT22;6277;49.824;9.562;2022-10-17T12:38:41;24.50;71.20
12426;DHT22;6277;49.824;9.562;2022-10-17T12:41:07;24.50;71.80
12426;DHT22;6277;49.824;9.562;2022-10-17T12:43:36;24.60;71.60
12426;DHT22;6277;49.824;9.562;2022-10-17T12:46:07;24.60;71.20
12426;DHT22;6277;49.824;9.562;2022-10-17T12:51:10;24.70;71.40
12426;DHT22;6277;49.824;9.562;2022-10-17T12:53:55;24.80;71.10
12426;DHT22;6277;49.824;9.562;2022-10-17T12:59:08;24.90;70.40
12426;DHT22;6277;49.824;9.562;2022-10-17T13:01:36;25.00;70.80
12426;DHT22;6277;49.824;9.562;2022-10-17T13:04:03;25.00;70.80
12426;DHT22;6277;49.824;9.562;2022-10-17T13:06:33;25.10;70.90
12426;DHT22;6277;49.824;9.562;2022-10-17T13:09:35;25.20;70.80
12426;DHT22;6277;49.824;9.562;2022-10-17T13:12:04;25.20;68.60
12426;DHT22;6277;49.824;9.562;2022-10-17T13:14:32;25.30;68.30
12426;DHT22;6277;49.824;9.562;2022-10-17T13:17:04;25.30;67.40
12426;DHT22;6277;49.824;9.562;2022-10-17T13:19:42;25.40;67.50
12426;DHT22;6277;49.824;9.562;2022-10-17T13:22:21;25.40;65.60
12426;DHT22;6277;49.824;9.562;2022-10-17T13:24:48;25.60;65.60
12426;DHT22;6277;49.824;9.562;2022-10-17T13:27:32;25.60;66.30
12426;DHT22;6277;49.824;9.562;2022-10-17T13:30:00;25.70;64.90
12426;DHT22;6277;49.824;9.562;2022-10-17T13:32:37;25.70;65.70
12426;DHT22;6277;49.824;9.562;2022-10-17T13:35:12;25.80;64.20
12426;DHT22;6277;49.824;9.562;2022-10-17T13:37:42;25.90;63.90
12426;DHT22;6277;49.824;9.562;2022-10-17T13:40:22;25.90;64.20
12426;DHT22;6277;49.824;9.562;2022-10-17T13:42:48;25.90;63.40
12426;DHT22;6277;49.824;9.562;2022-10-17T13:45:29;26.00;64.10
12426;DHT22;6277;49.824;9.562;2022-10-17T13:47:56;26.00;62.80
12426;DHT22;6277;49.824;9.562;2022-10-17T13:50:45;26.00;63.60
12426;DHT22;6277;49.824;9.562;2022-10-17T13:53:18;26.10;62.30
12426;DHT22;6277;49.824;9.562;2022-10-17T13:56:05;26.10;62.00
12426;DHT22;6277;49.824;9.562;2022-10-17T13:58:42;26.20;61.80
12426;DHT22;6277;49.824;9.562;2022-10-17T14:01:11;26.20;62.10
12426;DHT22;6277;49.824;9.562;2022-10-17T14:03:37;26.30;62.50
12426;DHT22;6277;49.824;9.562;2022-10-17T14:09:06;26.40;62.20
12426;DHT22;6277;49.824;9.562;2022-10-17T14:11:43;26.50;62.50
12426;DHT22;6277;49.824;9.562;2022-10-17T14:14:21;26.60;61.10
12426;DHT22;6277;49.824;9.562;2022-10-17T14:16:48;26.70;61.30
12426;DHT22;6277;49.824;9.562;2022-10-17T14:19:28;26.80;61.90
12426;DHT22;6277;49.824;9.562;2022-10-17T14:22:33;26.80;60.70
12426;DHT22;6277;49.824;9.562;2022-10-17T14:24:59;26.90;60.50
12426;DHT22;6277;49.824;9.562;2022-10-17T14:29:56;27.10;60.00
12426;DHT22;6277;49.824;9.562;2022-10-17T14:32:27;27.10;60.50
12426;DHT22;6277;49.824;9.562;2022-10-17T14:34:55;27.20;60.60
12426;DHT22;6277;49.824;9.562;2022-10-17T14:37:40;27.20;59.90
12426;DHT22;6277;49.824;9.562;2022-10-17T14:40:14;27.20;59.60
12426;DHT22;6277;49.824;9.562;2022-10-17T14:42:40;27.20;59.30
12426;DHT22;6277;49.824;9.562;2022-10-17T14:45:11;27.10;59.50
12426;DHT22;6277;49.824;9.562;2022-10-17T14:47:37;27.10;59.20
12426;DHT22;6277;49.824;9.562;2022-10-17T14:50:27;27.00;59.30
12426;DHT22;6277;49.824;9.562;2022-10-17T14:53:20;27.00;58.70
12426;DHT22;6277;49.824;9.562;2022-10-17T14:56:00;26.90;58.60
12426;DHT22;6277;49.824;9.562;2022-10-17T14:58:28;26.80;58.10
12426;DHT22;6277;49.824;9.562;2022-10-17T15:00:54;26.70;58.40
12426;DHT22;6277;49.824;9.562;2022-10-17T15:03:20;26.60;58.30
12426;DHT22;6277;49.824;9.562;2022-10-17T15:05:47;26.50;58.10
12426;DHT22;6277;49.824;9.562;2022-10-17T15:08:17;26.40;58.20
12426;DHT22;6277;49.824;9.562;2022-10-17T15:10:45;26.40;58.10
12426;DHT22;6277;49.824;9.562;2022-10-17T15:13:11;26.20;58.90
12426;DHT22;6277;49.824;9.562;2022-10-17T15:15:38;26.10;58.20
12426;DHT22;6277;49.824;9.562;2022-10-17T15:18:05;26.00;58.20
12426;DHT22;6277;49.824;9.562;2022-10-17T15:20:31;26.00;58.30
12426;DHT22;6277;49.824;9.562;2022-10-17T15:23:00;25.90;58.30
12426;DHT22;6277;49.824;9.562;2022-10-17T15:25:26;25.80;58.20
12426;DHT22;6277;49.824;9.562;2022-10-17T15:27:52;25.70;58.30
12426;DHT22;6277;49.824;9.562;2022-10-17T15:30:28;25.60;58.30
12426;DHT22;6277;49.824;9.562;2022-10-17T15:32:56;25.50;58.30
12426;DHT22;6277;49.824;9.562;2022-10-17T15:35:22;25.40;58.50
12426;DHT22;6277;49.824;9.562;2022-10-17T15:37:48;25.30;58.40
12426;DHT22;6277;49.824;9.562;2022-10-17T15:40:22;25.30;58.50
12426;DHT22;6277;49.824;9.562;2022-10-17T15:42:48;25.20;58.30
12426;DHT22;6277;49.824;9.562;2022-10-17T15:45:16;25.10;58.60
12426;DHT22;6277;49.824;9.562;2022-10-17T15:47:45;25.00;58.60
12426;DHT22;6277;49.824;9.562;2022-10-17T15:50:14;24.90;58.70
12426;DHT22;6277;49.824;9.562;2022-10-17T15:52:40;24.80;58.80
12426;DHT22;6277;49.824;9.562;2022-10-17T15:55:07;24.80;58.90
12426;DHT22;6277;49.824;9.562;2022-10-17T15:57:39;24.60;58.90
12426;DHT22;6277;49.824;9.562;2022-10-17T16:00:15;24.60;59.00
12426;DHT22;6277;49.824;9.562;2022-10-17T16:02:41;24.50;59.00
12426;DHT22;6277;49.824;9.562;2022-10-17T16:05:19;24.40;59.20
12426;DHT22;6277;49.824;9.562;2022-10-17T16:07:48;24.30;59.10
12426;DHT22;6277;49.824;9.562;2022-10-17T16:10:14;24.20;59.20
12426;DHT22;6277;49.824;9.562;2022-10-17T16:12:41;24.10;59.30
12426;DHT22;6277;49.824;9.562;2022-10-17T16:15:13;24.00;59.40
12426;DHT22;6277;49.824;9.562;2022-10-17T16:17:38;23.80;59.40
12426;DHT22;6277;49.824;9.562;2022-10-17T16:20:04;23.70;59.50
12426;DHT22;6277;49.824;9.562;2022-10-17T16:22:32;23.60;59.60
12426;DHT22;6277;49.824;9.562;2022-10-17T16:25:04;23.40;59.80
12426;DHT22;6277;49.824;9.562;2022-10-17T16:27:36;23.30;59.90
12426;DHT22;6277;49.824;9.562;2022-10-17T16:30:07;23.10;60.00
12426;DHT22;6277;49.824;9.562;2022-10-17T16:32:33;22.90;60.30
12426;DHT22;6277;49.824;9.562;2022-10-17T16:34:58;22.70;60.30
12426;DHT22;6277;49.824;9.562;2022-10-17T16:37:25;22.60;60.50
12426;DHT22;6277;49.824;9.562;2022-10-17T16:39:50;22.40;61.20
12426;DHT22;6277;49.824;9.562;2022-10-17T16:42:18;22.40;60.80
12426;DHT22;6277;49.824;9.562;2022-10-17T16:44:46;22.20;60.90
12426;DHT22;6277;49.824;9.562;2022-10-17T16:47:11;22.10;61.00
12426;DHT22;6277;49.824;9.562;2022-10-17T16:49:37;22.00;61.10
12426;DHT22;6277;49.824;9.562;2022-10-17T16:52:03;21.90;61.30
12426;DHT22;6277;49.824;9.562;2022-10-17T16:54:29;21.80;61.50
12426;DHT22;6277;49.824;9.562;2022-10-17T16:56:54;21.70;61.50
12426;DHT22;6277;49.824;9.562;2022-10-17T16:59:22;21.60;61.70
12426;DHT22;6277;49.824;9.562;2022-10-17T17:01:48;21.50;61.90
12426;DHT22;6277;49.824;9.562;2022-10-17T17:04:14;21.40;62.00
12426;DHT22;6277;49.824;9.562;2022-10-17T17:06:40;21.30;62.10
12426;DHT22;6277;49.824;9.562;2022-10-17T17:09:05;21.20;62.30
12426;DHT22;6277;49.824;9.562;2022-10-17T17:11:31;21.10;62.50
12426;DHT22;6277;49.824;9.562;2022-10-17T17:13:57;21.00;62.60
12426;DHT22;6277;49.824;9.562;2022-10-17T17:16:29;21.00;62.80
12426;DHT22;6277;49.824;9.562;2022-10-17T17:18:58;20.90;63.00
12426;DHT22;6277;49.824;9.562;2022-10-17T17:21:24;20.80;63.00
12426;DHT22;6277;49.824;9.562;2022-10-17T17:23:52;20.80;63.00
12426;DHT22;6277;49.824;9.562;2022-10-17T17:26:19;20.70;63.00
12426;DHT22;6277;49.824;9.562;2022-10-17T17:28:46;20.60;63.20
12426;DHT22;6277;49.824;9.562;2022-10-17T17:31:14;20.60;63.30
12426;DHT22;6277;49.824;9.562;2022-10-17T17:33:40;20.50;63.50
12426;DHT22;6277;49.824;9.562;2022-10-17T17:36:08;20.40;63.50
12426;DHT22;6277;49.824;9.562;2022-10-17T17:38:35;20.30;64.30
12426;DHT22;6277;49.824;9.562;2022-10-17T17:41:01;20.30;63.90
12426;DHT22;6277;49.824;9.562;2022-10-17T17:43:27;20.20;64.00
12426;DHT22;6277;49.824;9.562;2022-10-17T17:45:53;20.10;64.10
12426;DHT22;6277;49.824;9.562;2022-10-17T17:48:19;20.10;64.30
12426;DHT22;6277;49.824;9.562;2022-10-17T17:50:45;20.10;64.50
12426;DHT22;6277;49.824;9.562;2022-10-17T17:53:12;20.00;64.50
12426;DHT22;6277;49.824;9.562;2022-10-17T17:55:38;19.90;64.60
12426;DHT22;6277;49.824;9.562;2022-10-17T17:58:04;19.90;64.60
12426;DHT22;6277;49.824;9.562;2022-10-17T18:00:31;19.80;64.70